SBUA/SJL METAR and TAF weather

Enter ICAO airport designator
Station Type Date Time Source
SBUA METAR 2019/08/17 19:00 UTC NOAA

SBUA 171900Z 02004KT 9999 SCT020 FEW025TCU SCT090 30/23 Q1013


Station Type Date Time Source
SBUA Decoded METAR 2019/08/17 19:00 UTC NOAA

Station name not available
Aug 17, 2019 - 03:00 PM EDT / 2019.08.17 1900 UTC
Wind: from the NNE (020 degrees) at 5 MPH (4 KT):0
Visibility: greater than 7 mile(s):0
Sky conditions: partly cloudy
Weather: Towering cumulus clouds observed
Temperature: 86 F (30 C)
Heat index: 93.4 F (34.1 C):1
Dew Point: 73 F (23 C)
Relative Humidity: 66%
Pressure (altimeter): 29.91 in. Hg (1013 hPa)
ob: SBUA 171900Z 02004KT 9999 SCT020 FEW025TCU SCT090 30/23 Q1013
cycle: 19

Station Type Date Time Source
SBUA TAF 2015/12/16 12:56 UTC NOAA

SBUA 161000Z 1612/1624 00000KT 8000 BKN008 FEW025TCU TN25/1612Z TX34/ 1618Z
BECMG 1613/1615 32005KT 9999 BKN015
BECMG 1617/1619 06005KT SCT017 FEW025TCU PROB40 1619/1622 4000 TSRA BKN015 FEW025CB
RMK PDZ

Example: see airport list